sensor_id;sensor_type;location;lat;lon;timestamp;P1;durP1;ratioP1;P2;durP2;ratioP2
20657;SDS011;10488;50.846;4.078;2024-01-07T00:01:01;15.95;;;10.35;;
20657;SDS011;10488;50.846;4.078;2024-01-07T00:03:27;14.67;;;9.13;;
20657;SDS011;10488;50.846;4.078;2024-01-07T00:05:52;19.33;;;9.67;;
20657;SDS011;10488;50.846;4.078;2024-01-07T00:08:18;16.37;;;10.07;;
20657;SDS011;10488;50.846;4.078;2024-01-07T00:10:44;18.83;;;10.30;;
20657;SDS011;10488;50.846;4.078;2024-01-07T00:13:09;15.80;;;10.35;;
20657;SDS011;10488;50.846;4.078;2024-01-07T00:15:35;17.40;;;9.68;;
20657;SDS011;10488;50.846;4.078;2024-01-07T00:18:01;14.50;;;9.20;;
20657;SDS011;10488;50.846;4.078;2024-01-07T00:20:26;18.20;;;9.10;;
20657;SDS011;10488;50.846;4.078;2024-01-07T00:22:52;13.13;;;9.23;;
20657;SDS011;10488;50.846;4.078;2024-01-07T00:25:19;15.05;;;9.20;;
20657;SDS011;10488;50.846;4.078;2024-01-07T00:27:44;16.75;;;9.45;;
20657;SDS011;10488;50.846;4.078;2024-01-07T00:30:10;16.52;;;9.23;;
20657;SDS011;10488;50.846;4.078;2024-01-07T00:32:36;14.40;;;9.48;;
20657;SDS011;10488;50.846;4.078;2024-01-07T00:35:02;15.23;;;9.68;;
20657;SDS011;10488;50.846;4.078;2024-01-07T00:37:28;16.50;;;8.40;;
20657;SDS011;10488;50.846;4.078;2024-01-07T00:39:53;15.13;;;9.38;;
20657;SDS011;10488;50.846;4.078;2024-01-07T00:42:19;17.17;;;9.50;;
20657;SDS011;10488;50.846;4.078;2024-01-07T00:44:45;13.45;;;8.77;;
20657;SDS011;10488;50.846;4.078;2024-01-07T00:47:11;15.80;;;9.30;;
20657;SDS011;10488;50.846;4.078;2024-01-07T00:49:37;12.15;;;8.43;;
20657;SDS011;10488;50.846;4.078;2024-01-07T00:52:04;16.48;;;9.23;;
20657;SDS011;10488;50.846;4.078;2024-01-07T00:54:30;14.10;;;9.20;;
20657;SDS011;10488;50.846;4.078;2024-01-07T00:56:56;11.67;;;8.60;;
20657;SDS011;10488;50.846;4.078;2024-01-07T00:59:21;14.43;;;8.50;;
20657;SDS011;10488;50.846;4.078;2024-01-07T01:01:47;13.93;;;8.27;;
20657;SDS011;10488;50.846;4.078;2024-01-07T01:04:12;13.87;;;8.37;;
20657;SDS011;10488;50.846;4.078;2024-01-07T01:06:38;14.68;;;8.77;;
20657;SDS011;10488;50.846;4.078;2024-01-07T01:09:04;12.17;;;8.20;;
20657;SDS011;10488;50.846;4.078;2024-01-07T01:11:29;15.37;;;9.17;;
20657;SDS011;10488;50.846;4.078;2024-01-07T01:13:55;14.23;;;8.88;;
20657;SDS011;10488;50.846;4.078;2024-01-07T01:16:20;14.87;;;8.60;;
20657;SDS011;10488;50.846;4.078;2024-01-07T01:18:46;12.83;;;8.60;;
20657;SDS011;10488;50.846;4.078;2024-01-07T01:21:12;14.67;;;8.93;;
20657;SDS011;10488;50.846;4.078;2024-01-07T01:23:37;16.60;;;8.82;;
20657;SDS011;10488;50.846;4.078;2024-01-07T01:26:03;13.20;;;8.10;;
20657;SDS011;10488;50.846;4.078;2024-01-07T01:28:29;15.53;;;8.80;;
20657;SDS011;10488;50.846;4.078;2024-01-07T01:30:54;12.63;;;7.47;;
20657;SDS011;10488;50.846;4.078;2024-01-07T01:33:20;11.00;;;7.43;;
20657;SDS011;10488;50.846;4.078;2024-01-07T01:35:45;11.55;;;7.53;;
20657;SDS011;10488;50.846;4.078;2024-01-07T01:38:11;11.43;;;7.70;;
20657;SDS011;10488;50.846;4.078;2024-01-07T01:40:37;10.80;;;7.73;;
20657;SDS011;10488;50.846;4.078;2024-01-07T01:43:03;12.00;;;7.20;;
20657;SDS011;10488;50.846;4.078;2024-01-07T01:45:29;11.17;;;6.90;;
20657;SDS011;10488;50.846;4.078;2024-01-07T01:47:54;11.93;;;7.20;;
20657;SDS011;10488;50.846;4.078;2024-01-07T01:50:21;10.33;;;6.67;;
20657;SDS011;10488;50.846;4.078;2024-01-07T01:52:47;13.18;;;7.53;;
20657;SDS011;10488;50.846;4.078;2024-01-07T01:55:14;11.90;;;7.70;;
20657;SDS011;10488;50.846;4.078;2024-01-07T01:57:39;12.37;;;7.63;;
20657;SDS011;10488;50.846;4.078;2024-01-07T02:00:06;13.40;;;8.40;;
20657;SDS011;10488;50.846;4.078;2024-01-07T02:02:33;12.75;;;8.18;;
20657;SDS011;10488;50.846;4.078;2024-01-07T02:05:02;11.77;;;8.13;;
20657;SDS011;10488;50.846;4.078;2024-01-07T02:07:28;12.60;;;7.53;;
20657;SDS011;10488;50.846;4.078;2024-01-07T02:09:56;13.37;;;7.83;;
20657;SDS011;10488;50.846;4.078;2024-01-07T02:12:21;11.50;;;7.20;;
20657;SDS011;10488;50.846;4.078;2024-01-07T02:14:47;11.23;;;7.33;;
20657;SDS011;10488;50.846;4.078;2024-01-07T02:17:13;13.23;;;8.57;;
20657;SDS011;10488;50.846;4.078;2024-01-07T02:19:40;13.83;;;8.57;;
20657;SDS011;10488;50.846;4.078;2024-01-07T02:22:06;13.37;;;8.70;;
20657;SDS011;10488;50.846;4.078;2024-01-07T02:24:31;14.73;;;9.33;;
20657;SDS011;10488;50.846;4.078;2024-01-07T02:26:57;14.67;;;9.00;;
20657;SDS011;10488;50.846;4.078;2024-01-07T02:29:27;15.03;;;9.80;;
20657;SDS011;10488;50.846;4.078;2024-01-07T02:31:53;15.77;;;9.03;;
20657;SDS011;10488;50.846;4.078;2024-01-07T02:34:18;14.97;;;9.67;;
20657;SDS011;10488;50.846;4.078;2024-01-07T02:36:44;15.40;;;10.10;;
20657;SDS011;10488;50.846;4.078;2024-01-07T02:39:09;15.07;;;9.30;;
20657;SDS011;10488;50.846;4.078;2024-01-07T02:41:35;13.47;;;8.87;;
20657;SDS011;10488;50.846;4.078;2024-01-07T02:44:01;14.73;;;9.23;;
20657;SDS011;10488;50.846;4.078;2024-01-07T02:46:26;15.60;;;10.20;;
20657;SDS011;10488;50.846;4.078;2024-01-07T02:48:52;15.10;;;10.17;;
20657;SDS011;10488;50.846;4.078;2024-01-07T02:51:18;18.17;;;10.90;;
20657;SDS011;10488;50.846;4.078;2024-01-07T02:53:44;16.13;;;9.93;;
20657;SDS011;10488;50.846;4.078;2024-01-07T02:56:09;17.63;;;10.63;;
20657;SDS011;10488;50.846;4.078;2024-01-07T02:58:35;18.67;;;12.23;;
20657;SDS011;10488;50.846;4.078;2024-01-07T03:01:01;18.83;;;12.27;;
20657;SDS011;10488;50.846;4.078;2024-01-07T03:03:26;19.92;;;13.23;;
20657;SDS011;10488;50.846;4.078;2024-01-07T03:05:52;20.58;;;13.20;;
20657;SDS011;10488;50.846;4.078;2024-01-07T03:08:18;21.67;;;13.27;;
20657;SDS011;10488;50.846;4.078;2024-01-07T03:10:43;22.45;;;13.90;;
20657;SDS011;10488;50.846;4.078;2024-01-07T03:13:10;22.57;;;13.87;;
20657;SDS011;10488;50.846;4.078;2024-01-07T03:15:36;21.15;;;14.30;;
20657;SDS011;10488;50.846;4.078;2024-01-07T03:18:03;20.73;;;13.70;;
20657;SDS011;10488;50.846;4.078;2024-01-07T03:20:28;22.37;;;14.57;;
20657;SDS011;10488;50.846;4.078;2024-01-07T03:22:54;27.93;;;16.10;;
20657;SDS011;10488;50.846;4.078;2024-01-07T03:25:20;23.30;;;14.87;;
20657;SDS011;10488;50.846;4.078;2024-01-07T03:27:45;24.40;;;14.53;;
20657;SDS011;10488;50.846;4.078;2024-01-07T03:30:11;25.57;;;15.57;;
20657;SDS011;10488;50.846;4.078;2024-01-07T03:32:37;28.70;;;16.80;;
20657;SDS011;10488;50.846;4.078;2024-01-07T03:35:02;22.83;;;15.07;;
20657;SDS011;10488;50.846;4.078;2024-01-07T03:37:28;25.67;;;16.10;;
20657;SDS011;10488;50.846;4.078;2024-01-07T03:39:54;23.97;;;15.23;;
20657;SDS011;10488;50.846;4.078;2024-01-07T03:42:20;23.77;;;14.80;;
20657;SDS011;10488;50.846;4.078;2024-01-07T03:44:46;23.47;;;13.97;;
20657;SDS011;10488;50.846;4.078;2024-01-07T03:47:11;25.87;;;15.57;;
20657;SDS011;10488;50.846;4.078;2024-01-07T03:49:37;28.43;;;16.93;;
20657;SDS011;10488;50.846;4.078;2024-01-07T03:52:03;31.93;;;17.97;;
20657;SDS011;10488;50.846;4.078;2024-01-07T03:54:30;28.13;;;16.87;;
20657;SDS011;10488;50.846;4.078;2024-01-07T03:56:56;27.70;;;16.07;;
20657;SDS011;10488;50.846;4.078;2024-01-07T03:59:21;25.57;;;15.87;;
20657;SDS011;10488;50.846;4.078;2024-01-07T04:01:48;25.83;;;15.97;;
20657;SDS011;10488;50.846;4.078;2024-01-07T04:04:14;28.87;;;17.40;;
20657;SDS011;10488;50.846;4.078;2024-01-07T04:06:39;32.00;;;17.87;;
20657;SDS011;10488;50.846;4.078;2024-01-07T04:09:05;30.03;;;17.53;;
20657;SDS011;10488;50.846;4.078;2024-01-07T04:11:31;27.33;;;16.97;;
20657;SDS011;10488;50.846;4.078;2024-01-07T04:13:57;28.30;;;17.93;;
20657;SDS011;10488;50.846;4.078;2024-01-07T04:16:22;27.93;;;17.60;;
20657;SDS011;10488;50.846;4.078;2024-01-07T04:18:48;31.70;;;17.80;;
20657;SDS011;10488;50.846;4.078;2024-01-07T04:21:13;28.23;;;17.53;;
20657;SDS011;10488;50.846;4.078;2024-01-07T04:23:39;28.03;;;16.53;;
20657;SDS011;10488;50.846;4.078;2024-01-07T04:26:08;26.93;;;17.10;;
20657;SDS011;10488;50.846;4.078;2024-01-07T04:28:34;29.03;;;16.90;;
20657;SDS011;10488;50.846;4.078;2024-01-07T04:31:00;29.55;;;18.65;;
20657;SDS011;10488;50.846;4.078;2024-01-07T04:33:26;32.42;;;17.58;;
20657;SDS011;10488;50.846;4.078;2024-01-07T04:35:52;27.20;;;16.77;;
20657;SDS011;10488;50.846;4.078;2024-01-07T04:38:22;26.93;;;16.00;;
20657;SDS011;10488;50.846;4.078;2024-01-07T04:40:48;29.63;;;16.77;;
20657;SDS011;10488;50.846;4.078;2024-01-07T04:43:14;29.70;;;17.10;;
20657;SDS011;10488;50.846;4.078;2024-01-07T04:45:39;28.53;;;17.30;;
20657;SDS011;10488;50.846;4.078;2024-01-07T04:48:05;28.20;;;17.37;;
20657;SDS011;10488;50.846;4.078;2024-01-07T04:50:31;28.67;;;16.50;;
20657;SDS011;10488;50.846;4.078;2024-01-07T04:52:57;26.37;;;15.43;;
20657;SDS011;10488;50.846;4.078;2024-01-07T04:55:22;28.90;;;17.53;;
20657;SDS011;10488;50.846;4.078;2024-01-07T04:57:48;34.63;;;17.37;;
20657;SDS011;10488;50.846;4.078;2024-01-07T05:00:13;29.43;;;17.87;;
20657;SDS011;10488;50.846;4.078;2024-01-07T05:02:39;29.37;;;18.00;;
20657;SDS011;10488;50.846;4.078;2024-01-07T05:05:07;31.23;;;16.77;;
20657;SDS011;10488;50.846;4.078;2024-01-07T05:07:33;28.30;;;16.80;;
20657;SDS011;10488;50.846;4.078;2024-01-07T05:09:58;27.03;;;16.07;;
20657;SDS011;10488;50.846;4.078;2024-01-07T05:12:24;27.63;;;16.83;;
20657;SDS011;10488;50.846;4.078;2024-01-07T05:14:50;26.60;;;17.20;;
20657;SDS011;10488;50.846;4.078;2024-01-07T05:17:16;29.83;;;16.73;;
20657;SDS011;10488;50.846;4.078;2024-01-07T05:19:42;30.33;;;16.73;;
20657;SDS011;10488;50.846;4.078;2024-01-07T05:22:08;30.37;;;17.50;;
20657;SDS011;10488;50.846;4.078;2024-01-07T05:24:36;31.50;;;17.70;;
20657;SDS011;10488;50.846;4.078;2024-01-07T05:27:03;30.77;;;18.47;;
20657;SDS011;10488;50.846;4.078;2024-01-07T05:29:30;34.40;;;18.33;;
20657;SDS011;10488;50.846;4.078;2024-01-07T05:31:58;34.47;;;18.73;;
20657;SDS011;10488;50.846;4.078;2024-01-07T05:34:25;33.10;;;19.30;;
20657;SDS011;10488;50.846;4.078;2024-01-07T05:36:51;33.67;;;19.53;;
20657;SDS011;10488;50.846;4.078;2024-01-07T05:39:17;36.80;;;20.03;;
20657;SDS011;10488;50.846;4.078;2024-01-07T05:41:43;38.30;;;21.17;;
20657;SDS011;10488;50.846;4.078;2024-01-07T05:44:08;37.03;;;20.73;;
20657;SDS011;10488;50.846;4.078;2024-01-07T05:46:37;36.80;;;19.53;;
20657;SDS011;10488;50.846;4.078;2024-01-07T05:49:04;41.90;;;22.20;;
20657;SDS011;10488;50.846;4.078;2024-01-07T05:51:30;36.73;;;21.00;;
20657;SDS011;10488;50.846;4.078;2024-01-07T05:53:56;40.13;;;21.73;;
20657;SDS011;10488;50.846;4.078;2024-01-07T05:56:21;36.30;;;21.23;;
20657;SDS011;10488;50.846;4.078;2024-01-07T05:58:47;35.57;;;20.10;;
20657;SDS011;10488;50.846;4.078;2024-01-07T06:01:17;35.33;;;20.17;;
20657;SDS011;10488;50.846;4.078;2024-01-07T06:03:46;35.83;;;20.50;;
20657;SDS011;10488;50.846;4.078;2024-01-07T06:06:13;36.73;;;20.97;;
20657;SDS011;10488;50.846;4.078;2024-01-07T06:08:39;40.08;;;20.13;;
20657;SDS011;10488;50.846;4.078;2024-01-07T06:11:08;34.50;;;19.87;;
20657;SDS011;10488;50.846;4.078;2024-01-07T06:13:35;33.07;;;19.80;;
20657;SDS011;10488;50.846;4.078;2024-01-07T06:16:01;36.90;;;21.47;;
20657;SDS011;10488;50.846;4.078;2024-01-07T06:18:27;35.23;;;19.83;;
20657;SDS011;10488;50.846;4.078;2024-01-07T06:20:53;35.73;;;20.80;;
20657;SDS011;10488;50.846;4.078;2024-01-07T06:23:18;35.50;;;19.90;;
20657;SDS011;10488;50.846;4.078;2024-01-07T06:25:44;35.97;;;20.67;;
20657;SDS011;10488;50.846;4.078;2024-01-07T06:28:09;35.63;;;20.77;;
20657;SDS011;10488;50.846;4.078;2024-01-07T06:30:35;34.93;;;19.77;;
20657;SDS011;10488;50.846;4.078;2024-01-07T06:33:01;33.67;;;20.40;;
20657;SDS011;10488;50.846;4.078;2024-01-07T06:35:27;32.87;;;19.77;;
20657;SDS011;10488;50.846;4.078;2024-01-07T06:37:53;34.50;;;19.87;;
20657;SDS011;10488;50.846;4.078;2024-01-07T06:40:18;34.00;;;19.07;;
20657;SDS011;10488;50.846;4.078;2024-01-07T06:42:45;36.37;;;19.23;;
20657;SDS011;10488;50.846;4.078;2024-01-07T06:45:12;29.43;;;17.03;;
20657;SDS011;10488;50.846;4.078;2024-01-07T06:47:39;33.50;;;19.30;;
20657;SDS011;10488;50.846;4.078;2024-01-07T06:50:05;32.80;;;18.53;;
20657;SDS011;10488;50.846;4.078;2024-01-07T06:52:31;31.30;;;18.40;;
20657;SDS011;10488;50.846;4.078;2024-01-07T06:54:57;31.40;;;17.47;;
20657;SDS011;10488;50.846;4.078;2024-01-07T06:57:22;29.57;;;17.80;;
20657;SDS011;10488;50.846;4.078;2024-01-07T06:59:48;29.90;;;17.57;;
20657;SDS011;10488;50.846;4.078;2024-01-07T07:02:14;29.13;;;17.20;;
20657;SDS011;10488;50.846;4.078;2024-01-07T07:04:39;28.90;;;16.57;;
20657;SDS011;10488;50.846;4.078;2024-01-07T07:07:05;30.60;;;16.97;;
20657;SDS011;10488;50.846;4.078;2024-01-07T07:09:30;31.00;;;17.80;;
20657;SDS011;10488;50.846;4.078;2024-01-07T07:11:56;34.20;;;19.53;;
20657;SDS011;10488;50.846;4.078;2024-01-07T07:14:22;32.17;;;17.23;;
20657;SDS011;10488;50.846;4.078;2024-01-07T07:16:47;33.60;;;16.87;;
20657;SDS011;10488;50.846;4.078;2024-01-07T07:19:13;33.53;;;17.60;;
20657;SDS011;10488;50.846;4.078;2024-01-07T07:21:40;35.10;;;18.20;;
20657;SDS011;10488;50.846;4.078;2024-01-07T07:24:06;37.17;;;17.63;;
20657;SDS011;10488;50.846;4.078;2024-01-07T07:26:31;38.20;;;18.60;;
20657;SDS011;10488;50.846;4.078;2024-01-07T07:28:58;31.40;;;17.80;;
20657;SDS011;10488;50.846;4.078;2024-01-07T07:31:25;41.07;;;20.10;;
20657;SDS011;10488;50.846;4.078;2024-01-07T07:33:51;35.47;;;18.40;;
20657;SDS011;10488;50.846;4.078;2024-01-07T07:36:17;39.63;;;20.87;;
20657;SDS011;10488;50.846;4.078;2024-01-07T07:38:42;36.97;;;19.03;;
20657;SDS011;10488;50.846;4.078;2024-01-07T07:41:08;35.50;;;19.70;;
20657;SDS011;10488;50.846;4.078;2024-01-07T07:43:34;34.27;;;17.77;;
20657;SDS011;10488;50.846;4.078;2024-01-07T07:45:59;35.97;;;18.23;;
20657;SDS011;10488;50.846;4.078;2024-01-07T07:48:28;41.60;;;19.23;;
20657;SDS011;10488;50.846;4.078;2024-01-07T07:50:53;35.23;;;18.53;;
20657;SDS011;10488;50.846;4.078;2024-01-07T07:53:19;44.77;;;20.50;;
20657;SDS011;10488;50.846;4.078;2024-01-07T07:55:45;41.20;;;19.97;;
20657;SDS011;10488;50.846;4.078;2024-01-07T07:58:11;46.50;;;22.40;;
20657;SDS011;10488;50.846;4.078;2024-01-07T08:00:36;45.40;;;22.37;;
20657;SDS011;10488;50.846;4.078;2024-01-07T08:03:02;51.87;;;23.03;;
20657;SDS011;10488;50.846;4.078;2024-01-07T08:05:28;82.00;;;39.63;;
20657;SDS011;10488;50.846;4.078;2024-01-07T08:07:53;51.23;;;22.70;;
20657;SDS011;10488;50.846;4.078;2024-01-07T08:10:20;61.03;;;27.20;;
20657;SDS011;10488;50.846;4.078;2024-01-07T08:12:47;50.03;;;24.83;;
20657;SDS011;10488;50.846;4.078;2024-01-07T08:15:14;64.60;;;29.77;;
20657;SDS011;10488;50.846;4.078;2024-01-07T08:17:40;53.37;;;25.13;;
20657;SDS011;10488;50.846;4.078;2024-01-07T08:20:05;53.03;;;23.87;;
20657;SDS011;10488;50.846;4.078;2024-01-07T08:22:32;55.67;;;24.87;;
20657;SDS011;10488;50.846;4.078;2024-01-07T08:24:57;59.07;;;26.23;;
20657;SDS011;10488;50.846;4.078;2024-01-07T08:27:23;48.70;;;22.80;;
20657;SDS011;10488;50.846;4.078;2024-01-07T08:29:49;58.47;;;25.27;;
20657;SDS011;10488;50.846;4.078;2024-01-07T08:32:14;72.90;;;33.60;;
20657;SDS011;10488;50.846;4.078;2024-01-07T08:34:40;54.90;;;26.03;;
20657;SDS011;10488;50.846;4.078;2024-01-07T08:37:06;53.93;;;24.40;;
20657;SDS011;10488;50.846;4.078;2024-01-07T08:39:34;52.30;;;25.37;;
20657;SDS011;10488;50.846;4.078;2024-01-07T08:41:59;51.10;;;24.70;;
20657;SDS011;10488;50.846;4.078;2024-01-07T08:44:25;49.40;;;22.83;;
20657;SDS011;10488;50.846;4.078;2024-01-07T08:46:50;50.43;;;24.20;;
20657;SDS011;10488;50.846;4.078;2024-01-07T08:49:16;55.90;;;24.80;;
20657;SDS011;10488;50.846;4.078;2024-01-07T08:51:42;57.23;;;24.50;;
20657;SDS011;10488;50.846;4.078;2024-01-07T08:54:08;51.60;;;26.10;;
20657;SDS011;10488;50.846;4.078;2024-01-07T08:56:33;52.97;;;24.97;;
20657;SDS011;10488;50.846;4.078;2024-01-07T08:58:59;51.77;;;25.27;;
20657;SDS011;10488;50.846;4.078;2024-01-07T09:01:24;51.60;;;24.10;;
20657;SDS011;10488;50.846;4.078;2024-01-07T09:03:50;52.83;;;25.03;;
20657;SDS011;10488;50.846;4.078;2024-01-07T09:06:16;48.23;;;23.47;;
20657;SDS011;10488;50.846;4.078;2024-01-07T09:08:41;51.53;;;24.23;;
20657;SDS011;10488;50.846;4.078;2024-01-07T09:11:07;46.87;;;23.07;;
20657;SDS011;10488;50.846;4.078;2024-01-07T09:13:36;48.23;;;23.07;;
20657;SDS011;10488;50.846;4.078;2024-01-07T09:16:02;47.23;;;22.93;;
20657;SDS011;10488;50.846;4.078;2024-01-07T09:18:27;49.60;;;21.80;;
20657;SDS011;10488;50.846;4.078;2024-01-07T09:20:53;43.80;;;22.30;;
20657;SDS011;10488;50.846;4.078;2024-01-07T09:23:19;54.13;;;24.47;;
20657;SDS011;10488;50.846;4.078;2024-01-07T09:25:44;46.93;;;21.37;;
20657;SDS011;10488;50.846;4.078;2024-01-07T09:28:11;45.13;;;23.63;;
20657;SDS011;10488;50.846;4.078;2024-01-07T09:30:38;48.53;;;23.93;;
20657;SDS011;10488;50.846;4.078;2024-01-07T09:33:03;55.50;;;23.80;;
20657;SDS011;10488;50.846;4.078;2024-01-07T09:35:30;43.53;;;22.83;;
20657;SDS011;10488;50.846;4.078;2024-01-07T09:37:56;45.37;;;23.63;;
20657;SDS011;10488;50.846;4.078;2024-01-07T09:40:21;45.60;;;24.67;;
20657;SDS011;10488;50.846;4.078;2024-01-07T09:42:47;49.20;;;24.97;;
20657;SDS011;10488;50.846;4.078;2024-01-07T09:45:14;42.17;;;20.77;;
20657;SDS011;10488;50.846;4.078;2024-01-07T09:47:40;45.17;;;22.20;;
20657;SDS011;10488;50.846;4.078;2024-01-07T09:50:09;39.80;;;21.63;;
20657;SDS011;10488;50.846;4.078;2024-01-07T09:52:35;38.30;;;20.50;;
20657;SDS011;10488;50.846;4.078;2024-01-07T09:55:03;44.03;;;23.37;;
20657;SDS011;10488;50.846;4.078;2024-01-07T09:57:29;46.50;;;22.50;;
20657;SDS011;10488;50.846;4.078;2024-01-07T09:59:55;50.00;;;22.77;;
20657;SDS011;10488;50.846;4.078;2024-01-07T10:02:21;50.70;;;23.47;;
20657;SDS011;10488;50.846;4.078;2024-01-07T10:04:49;51.33;;;23.37;;
20657;SDS011;10488;50.846;4.078;2024-01-07T10:07:15;44.97;;;22.17;;
20657;SDS011;10488;50.846;4.078;2024-01-07T10:09:42;46.13;;;24.30;;
20657;SDS011;10488;50.846;4.078;2024-01-07T10:12:08;49.53;;;24.93;;
20657;SDS011;10488;50.846;4.078;2024-01-07T10:14:34;49.07;;;24.50;;
20657;SDS011;10488;50.846;4.078;2024-01-07T10:17:00;54.07;;;26.67;;
20657;SDS011;10488;50.846;4.078;2024-01-07T10:19:26;45.93;;;23.50;;
20657;SDS011;10488;50.846;4.078;2024-01-07T10:21:58;46.93;;;22.77;;
20657;SDS011;10488;50.846;4.078;2024-01-07T10:24:25;43.60;;;23.10;;
20657;SDS011;10488;50.846;4.078;2024-01-07T10:26:51;48.33;;;25.37;;
20657;SDS011;10488;50.846;4.078;2024-01-07T10:29:17;41.93;;;22.40;;
20657;SDS011;10488;50.846;4.078;2024-01-07T10:31:43;38.90;;;21.23;;
20657;SDS011;10488;50.846;4.078;2024-01-07T10:34:09;39.23;;;20.00;;
20657;SDS011;10488;50.846;4.078;2024-01-07T10:36:35;39.30;;;17.87;;
20657;SDS011;10488;50.846;4.078;2024-01-07T10:39:02;45.53;;;23.93;;
20657;SDS011;10488;50.846;4.078;2024-01-07T10:41:28;41.90;;;22.17;;
20657;SDS011;10488;50.846;4.078;2024-01-07T10:43:56;43.37;;;23.00;;
20657;SDS011;10488;50.846;4.078;2024-01-07T10:46:22;42.17;;;22.03;;
20657;SDS011;10488;50.846;4.078;2024-01-07T10:48:55;38.53;;;20.90;;
20657;SDS011;10488;50.846;4.078;2024-01-07T10:51:28;34.43;;;18.53;;
20657;SDS011;10488;50.846;4.078;2024-01-07T10:53:57;36.57;;;20.73;;
20657;SDS011;10488;50.846;4.078;2024-01-07T10:56:25;39.70;;;21.47;;
20657;SDS011;10488;50.846;4.078;2024-01-07T10:59:06;39.50;;;22.00;;
20657;SDS011;10488;50.846;4.078;2024-01-07T11:01:31;46.03;;;25.07;;
20657;SDS011;10488;50.846;4.078;2024-01-07T11:04:06;41.03;;;23.10;;
20657;SDS011;10488;50.846;4.078;2024-01-07T11:09:35;45.50;;;24.40;;
20657;SDS011;10488;50.846;4.078;2024-01-07T11:12:03;41.83;;;23.70;;
20657;SDS011;10488;50.846;4.078;2024-01-07T11:14:42;39.43;;;21.97;;
20657;SDS011;10488;50.846;4.078;2024-01-07T11:17:39;37.97;;;21.00;;
20657;SDS011;10488;50.846;4.078;2024-01-07T11:20:06;51.10;;;21.83;;
20657;SDS011;10488;50.846;4.078;2024-01-07T11:22:35;36.03;;;20.10;;
20657;SDS011;10488;50.846;4.078;2024-01-07T11:25:01;34.63;;;19.83;;
20657;SDS011;10488;50.846;4.078;2024-01-07T11:27:31;35.07;;;19.70;;
20657;SDS011;10488;50.846;4.078;2024-01-07T11:30:05;35.47;;;21.20;;
20657;SDS011;10488;50.846;4.078;2024-01-07T11:32:33;31.60;;;19.03;;
20657;SDS011;10488;50.846;4.078;2024-01-07T11:34:59;34.30;;;20.00;;
20657;SDS011;10488;50.846;4.078;2024-01-07T11:37:25;30.00;;;17.60;;
20657;SDS011;10488;50.846;4.078;2024-01-07T11:39:55;30.07;;;17.17;;
20657;SDS011;10488;50.846;4.078;2024-01-07T11:42:23;29.13;;;18.30;;
20657;SDS011;10488;50.846;4.078;2024-01-07T11:44:50;25.83;;;16.53;;
20657;SDS011;10488;50.846;4.078;2024-01-07T11:47:19;28.37;;;16.53;;
20657;SDS011;10488;50.846;4.078;2024-01-07T11:49:46;28.60;;;16.13;;
20657;SDS011;10488;50.846;4.078;2024-01-07T11:52:14;24.00;;;16.33;;
20657;SDS011;10488;50.846;4.078;2024-01-07T11:54:40;30.13;;;17.23;;
20657;SDS011;10488;50.846;4.078;2024-01-07T11:57:07;33.90;;;18.73;;
20657;SDS011;10488;50.846;4.078;2024-01-07T11:59:33;31.80;;;19.03;;
20657;SDS011;10488;50.846;4.078;2024-01-07T12:02:00;27.93;;;17.67;;
20657;SDS011;10488;50.846;4.078;2024-01-07T12:04:26;28.20;;;16.90;;
20657;SDS011;10488;50.846;4.078;2024-01-07T12:06:53;31.70;;;18.23;;
20657;SDS011;10488;50.846;4.078;2024-01-07T12:09:18;64.30;;;34.13;;
20657;SDS011;10488;50.846;4.078;2024-01-07T12:11:44;28.70;;;17.57;;
20657;SDS011;10488;50.846;4.078;2024-01-07T12:14:10;30.87;;;17.57;;
20657;SDS011;10488;50.846;4.078;2024-01-07T12:16:37;30.63;;;18.47;;
20657;SDS011;10488;50.846;4.078;2024-01-07T12:19:03;31.27;;;15.70;;
20657;SDS011;10488;50.846;4.078;2024-01-07T12:21:29;28.77;;;17.47;;
20657;SDS011;10488;50.846;4.078;2024-01-07T12:23:55;26.30;;;16.80;;
20657;SDS011;10488;50.846;4.078;2024-01-07T12:26:25;30.20;;;18.33;;
20657;SDS011;10488;50.846;4.078;2024-01-07T12:28:53;30.33;;;17.83;;
20657;SDS011;10488;50.846;4.078;2024-01-07T12:31:25;24.17;;;14.47;;
20657;SDS011;10488;50.846;4.078;2024-01-07T12:33:51;33.23;;;18.83;;
20657;SDS011;10488;50.846;4.078;2024-01-07T12:36:23;27.97;;;16.97;;
20657;SDS011;10488;50.846;4.078;2024-01-07T12:38:49;32.07;;;18.37;;
20657;SDS011;10488;50.846;4.078;2024-01-07T12:41:16;30.70;;;18.67;;
20657;SDS011;10488;50.846;4.078;2024-01-07T12:43:42;28.53;;;17.80;;
20657;SDS011;10488;50.846;4.078;2024-01-07T12:46:08;27.93;;;17.20;;
20657;SDS011;10488;50.846;4.078;2024-01-07T12:48:34;29.90;;;17.00;;
20657;SDS011;10488;50.846;4.078;2024-01-07T12:51:00;29.97;;;17.73;;
20657;SDS011;10488;50.846;4.078;2024-01-07T12:53:26;30.33;;;18.13;;
20657;SDS011;10488;50.846;4.078;2024-01-07T12:55:52;31.47;;;17.63;;
20657;SDS011;10488;50.846;4.078;2024-01-07T12:58:18;38.93;;;18.23;;
20657;SDS011;10488;50.846;4.078;2024-01-07T13:00:43;30.40;;;18.13;;
20657;SDS011;10488;50.846;4.078;2024-01-07T13:03:09;33.10;;;18.63;;
20657;SDS011;10488;50.846;4.078;2024-01-07T13:05:44;32.53;;;17.63;;
20657;SDS011;10488;50.846;4.078;2024-01-07T13:08:11;33.27;;;18.67;;
20657;SDS011;10488;50.846;4.078;2024-01-07T13:10:38;35.87;;;17.13;;
20657;SDS011;10488;50.846;4.078;2024-01-07T13:13:04;33.90;;;18.83;;
20657;SDS011;10488;50.846;4.078;2024-01-07T13:15:29;30.67;;;18.07;;
20657;SDS011;10488;50.846;4.078;2024-01-07T13:17:56;27.17;;;14.43;;
20657;SDS011;10488;50.846;4.078;2024-01-07T13:20:22;32.30;;;17.73;;
20657;SDS011;10488;50.846;4.078;2024-01-07T13:22:47;25.17;;;14.17;;
20657;SDS011;10488;50.846;4.078;2024-01-07T13:25:13;29.97;;;18.03;;
20657;SDS011;10488;50.846;4.078;2024-01-07T13:27:39;27.27;;;14.77;;
20657;SDS011;10488;50.846;4.078;2024-01-07T13:30:05;30.27;;;19.03;;
20657;SDS011;10488;50.846;4.078;2024-01-07T13:32:31;22.43;;;14.13;;
20657;SDS011;10488;50.846;4.078;2024-01-07T13:35:01;33.73;;;18.37;;
20657;SDS011;10488;50.846;4.078;2024-01-07T13:37:30;29.90;;;17.70;;
20657;SDS011;10488;50.846;4.078;2024-01-07T13:39:56;28.07;;;18.07;;
20657;SDS011;10488;50.846;4.078;2024-01-07T13:42:22;35.00;;;18.93;;
20657;SDS011;10488;50.846;4.078;2024-01-07T13:44:48;28.10;;;18.17;;
20657;SDS011;10488;50.846;4.078;2024-01-07T13:47:14;27.00;;;17.40;;
20657;SDS011;10488;50.846;4.078;2024-01-07T13:49:41;27.20;;;16.57;;
20657;SDS011;10488;50.846;4.078;2024-01-07T13:52:07;35.53;;;20.10;;
20657;SDS011;10488;50.846;4.078;2024-01-07T13:54:32;32.53;;;17.80;;
20657;SDS011;10488;50.846;4.078;2024-01-07T13:56:58;37.93;;;16.93;;
20657;SDS011;10488;50.846;4.078;2024-01-07T13:59:24;28.77;;;18.17;;
20657;SDS011;10488;50.846;4.078;2024-01-07T14:01:51;24.67;;;15.57;;
20657;SDS011;10488;50.846;4.078;2024-01-07T14:04:16;24.20;;;16.23;;
20657;SDS011;10488;50.846;4.078;2024-01-07T14:06:42;29.97;;;16.70;;
20657;SDS011;10488;50.846;4.078;2024-01-07T14:09:09;30.03;;;17.77;;
20657;SDS011;10488;50.846;4.078;2024-01-07T14:11:35;27.53;;;17.60;;
20657;SDS011;10488;50.846;4.078;2024-01-07T14:14:00;26.83;;;17.20;;
20657;SDS011;10488;50.846;4.078;2024-01-07T14:16:27;26.40;;;16.90;;
20657;SDS011;10488;50.846;4.078;2024-01-07T14:18:53;29.97;;;17.70;;
20657;SDS011;10488;50.846;4.078;2024-01-07T14:21:19;22.87;;;15.20;;